Etusivu
METAR-TAF:

METAR-TAF

Lentoasemat :

Vamdrup

Kolding, Tanska

Leveyspiiri: 55-26N, Pituuspiiri: 009-20E, korkeus merenpinnasta: 44 m

Tämänhetkinen sää

Tämä raportti tehtiin 37 minuuttia sitten, kello 04.20 UTC
Tuuli 19 kn lounaasta
Lämpötila 13°C
Kosteus 82%
Ilmanpaine 1025 hPa

METAR: EKVD 260420Z AUTO 23019KT //// ///////// 13/10 Q1025

Aika: 06:57 (04:57 UTC)

Sääennuste

Tämä raportti tehtiin 17 tuntia ja 3 minuuttia sitten, kello 11.54 UTC
Ennuste voimassa 25. päivästä klo 12 UTC - 25. päivään klo 16 UTC
Tuuli 10 kn lännestä
Näkyvyys 10 km tai enemmän
Hajanaisia pilviä 3000 ft:n korkeudessa

TAF: EKVD 251154Z 2512/2516 26010KT 9999 SCT030

Säähavainnot ja -ennusteet yli 4000 lentoasemalta (METAR- ja TAF-raportit).

Käytössä olevat sääasemat on merkitty karttaan keltaisilla ja punaisilla pisteillä.

Aseta hiiri pisteen päälle nähdäksesi sääaseman nimen.

Klikkaa sitten nähdäksesi säähavainnot ja -ennusteet.

Kartan vaihtaminen: klikkaa mustalla rastilla varustettuja vihreitä pisteitä, niin voit zoomata sisään; viivalla varustettua vihreää pistettä, niin voit zoomata ulos tai vihreitä nuolia, niin pääset viereisille kartoille.


METAR-TAF: